Terminal Aerodrome Forecast
Issued by NWS Charleston, WV

Home | Current Version | Previous Version | Text Only | Print | Product List | Glossary On
Versions: 1 2 3 4 5 6 7 8 9 10 11 12 13 14 15 16 17 18 19 20 21 22 23 24 25 26 27
910
FTUS41 KRLX 231510 AAA
TAFCRW
TAF AMD
KCRW 231510Z 2315/2412 00000KT P6SM SCT028 BKN050
     FM231600 33004KT P6SM SCT080
     FM231900 32004KT P6SM FEW250
     FM240500 00000KT 5SM BR FEW100
     FM240900 00000KT 2SM BR FEW050=

USA.gov is the U.S. government's official web portal to all federal, state and local government web resources and services.